Thailine 9 — 9WGP9 — position and weather

sailwx.info

Track history (hours):
 
Tides and Currents Weather Stations Pressure Air Temp Water Temp Dewpoint Dewpoint Depression Visibility Wind Speed Wind Dir Waves Ship Positions

Thailine 9

Last reported at 2014-Jul-11 12:06 UTC. Time now 2014-Jul-28 04:22 UTC.
Position N 22°22' E 119°49'.
Warning: this ship's position is 16 days out of date.

Length 113 m; draft 7.7 m.

Type: Cargo ship. MMSI: 533791000.

Date/timePositionNaut miles runAvg speedWind from/ knotsBaromVisibWave heightAir tempDewpointWater temp
2014-Jul-11 12:06N 22°22' E 119°49'610.4
2014-Jul-11 11:32N 22°26' E 119°54'1110.5
2014-Jul-11 10:32N 22°31' E 120°04'1010.6
2014-Jul-11 09:33N 22°38' E 120°12'5 5.5
2014-Jul-11 08:33N 22°36' E 120°17'0 0.0
2014-Jul-11 07:33N 22°36' E 120°17'0 0.0
2014-Jul-11 06:31N 22°36' E 120°17'0 0.0
2014-Jul-11 05:31N 22°36' E 120°17'0 0.0
2014-Jul-11 04:31N 22°36' E 120°17'0 0.0
2014-Jul-11 03:25N 22°36' E 120°17'0 0.0
2014-Jul-11 02:25N 22°36' E 120°17'0 0.0
2014-Jul-11 01:19N 22°36' E 120°17'0 0.0
2014-Jul-11 00:25N 22°36' E 120°17'0 0.1
2014-Jul-10 23:19N 22°36' E 120°17'0 0.1
2014-Jul-10 22:31N 22°36' E 120°17'0 0.0
2014-Jul-10 20:31N 22°36' E 120°17'0 0.0
2014-Jul-10 19:31N 22°36' E 120°17'0 0.0
2014-Jul-10 18:31N 22°36' E 120°17'0 0.0
2014-Jul-10 17:31N 22°36' E 120°17'0 0.0
2014-Jul-10 16:31N 22°36' E 120°17'0 0.0
2014-Jul-10 03:25N 22°36' E 120°17'0 0.0
2014-Jul-10 02:31N 22°36' E 120°17'0 0.0
2014-Jul-10 00:31N 22°36' E 120°17'0 0.0
2014-Jul-09 23:25N 22°36' E 120°17'0 0.0
2014-Jul-09 22:31N 22°36' E 120°17'0 0.0
2014-Jul-09 21:31N 22°36' E 120°17'0 0.0
2014-Jul-09 20:31N 22°36' E 120°17'0 0.0
2014-Jul-09 19:31N 22°36' E 120°17'0 0.0
2014-Jul-09 18:31N 22°36' E 120°17'0 0.0
2014-Jul-09 17:31N 22°36' E 120°17'0 0.0
2014-Jul-09 16:31N 22°36' E 120°17'0 0.0
2014-Jul-09 15:31N 22°36' E 120°17'0 0.0
2014-Jul-09 14:25N 22°36' E 120°17'0 0.0
2014-Jul-09 13:31N 22°36' E 120°17'2 1.9
2014-Jul-09 12:32N 22°37' E 120°16'1 1.1
2014-Jul-09 11:22N 22°36' E 120°15'0 0.0
2014-Jul-09 10:28N 22°36' E 120°15'0 0.0
2014-Jul-09 09:28N 22°36' E 120°15'0 0.1
2014-Jul-09 08:28N 22°36' E 120°15'0 0.0
2014-Jul-09 07:28N 22°36' E 120°15'0 0.0
2014-Jul-09 06:28N 22°36' E 120°15'0 0.0
2014-Jul-09 05:28N 22°36' E 120°15'0 0.1
2014-Jul-09 04:28N 22°36' E 120°15'0 0.1
2014-Jul-09 03:28N 22°36' E 120°15'0 0.0
2014-Jul-09 02:28N 22°36' E 120°15'0 0.0
2014-Jul-09 00:28N 22°36' E 120°15'0 0.0
2014-Jul-08 23:28N 22°36' E 120°15'0 0.1
2014-Jul-08 22:29N 22°36' E 120°15'0 0.1
2014-Jul-08 21:28N 22°36' E 120°15'0 0.0
2014-Jul-08 20:28N 22°36' E 120°15'0 0.1
2014-Jul-08 19:33N 22°36' E 120°15'7 6.9
2014-Jul-08 18:33N 22°31' E 120°10'1211.8
2014-Jul-08 17:32N 22°19' E 120°09'  
Track history (hours):
 
Tides and Currents Weather Stations Pressure Air Temp Water Temp Dewpoint Dewpoint Depression Visibility Wind Speed Wind Dir Waves Ship Positions

Thailine 9

Last reported at 2014-Jul-11 12:06 UTC. Time now 2014-Jul-28 04:22 UTC.
Position N 22°22' E 119°49'.
Warning: this ship's position is 16 days out of date.

Length 113 m; draft 7.7 m.

Type: Cargo ship. MMSI: 533791000.

Date/timePositionNaut miles runAvg speedWind from/ knotsBaromVisibWave heightAir tempDewpointWater temp
2014-Jul-11 12:06N 22°22' E 119°49'610.4
2014-Jul-11 11:32N 22°26' E 119°54'1110.5
2014-Jul-11 10:32N 22°31' E 120°04'1010.6
2014-Jul-11 09:33N 22°38' E 120°12'5 5.5
2014-Jul-11 08:33N 22°36' E 120°17'0 0.0
2014-Jul-11 07:33N 22°36' E 120°17'0 0.0
2014-Jul-11 06:31N 22°36' E 120°17'0 0.0
2014-Jul-11 05:31N 22°36' E 120°17'0 0.0
2014-Jul-11 04:31N 22°36' E 120°17'0 0.0
2014-Jul-11 03:25N 22°36' E 120°17'0 0.0
2014-Jul-11 02:25N 22°36' E 120°17'0 0.0
2014-Jul-11 01:19N 22°36' E 120°17'0 0.0
2014-Jul-11 00:25N 22°36' E 120°17'0 0.1
2014-Jul-10 23:19N 22°36' E 120°17'0 0.1
2014-Jul-10 22:31N 22°36' E 120°17'0 0.0
2014-Jul-10 20:31N 22°36' E 120°17'0 0.0
2014-Jul-10 19:31N 22°36' E 120°17'0 0.0
2014-Jul-10 18:31N 22°36' E 120°17'0 0.0
2014-Jul-10 17:31N 22°36' E 120°17'0 0.0
2014-Jul-10 16:31N 22°36' E 120°17'0 0.0
2014-Jul-10 03:25N 22°36' E 120°17'0 0.0
2014-Jul-10 02:31N 22°36' E 120°17'0 0.0
2014-Jul-10 00:31N 22°36' E 120°17'0 0.0
2014-Jul-09 23:25N 22°36' E 120°17'0 0.0
2014-Jul-09 22:31N 22°36' E 120°17'0 0.0
2014-Jul-09 21:31N 22°36' E 120°17'0 0.0
2014-Jul-09 20:31N 22°36' E 120°17'0 0.0
2014-Jul-09 19:31N 22°36' E 120°17'0 0.0
2014-Jul-09 18:31N 22°36' E 120°17'0 0.0
2014-Jul-09 17:31N 22°36' E 120°17'0 0.0
2014-Jul-09 16:31N 22°36' E 120°17'0 0.0
2014-Jul-09 15:31N 22°36' E 120°17'0 0.0
2014-Jul-09 14:25N 22°36' E 120°17'0 0.0
2014-Jul-09 13:31N 22°36' E 120°17'2 1.9
2014-Jul-09 12:32N 22°37' E 120°16'1 1.1
2014-Jul-09 11:22N 22°36' E 120°15'0 0.0
2014-Jul-09 10:28N 22°36' E 120°15'0 0.0
2014-Jul-09 09:28N 22°36' E 120°15'0 0.1
2014-Jul-09 08:28N 22°36' E 120°15'0 0.0
2014-Jul-09 07:28N 22°36' E 120°15'0 0.0
2014-Jul-09 06:28N 22°36' E 120°15'0 0.0
2014-Jul-09 05:28N 22°36' E 120°15'0 0.1
2014-Jul-09 04:28N 22°36' E 120°15'0 0.1
2014-Jul-09 03:28N 22°36' E 120°15'0 0.0
2014-Jul-09 02:28N 22°36' E 120°15'0 0.0
2014-Jul-09 00:28N 22°36' E 120°15'0 0.0
2014-Jul-08 23:28N 22°36' E 120°15'0 0.1
2014-Jul-08 22:29N 22°36' E 120°15'0 0.1
2014-Jul-08 21:28N 22°36' E 120°15'0 0.0
2014-Jul-08 20:28N 22°36' E 120°15'0 0.1
2014-Jul-08 19:33N 22°36' E 120°15'7 6.9
2014-Jul-08 18:33N 22°31' E 120°10'1211.8
2014-Jul-08 17:32N 22°19' E 120°09'  

Dump ship's entire track history